Portada
METAR-TAF:

METAR-TAF

Aeroports :

Aeroport Internacional de Dubai

Dubai, Emirats Àrabs Units

latitud: 25-15-10N, longitud: 055-21-52E, altitud: 8 m

Observació

L'informe es va fer fa 34 minuts, a les 21:00 UTC
Vent 6 kt del Nord/Nord-Oest
Temperatura 33°C
Humitat 34%
Pressió 1007 hPa
Visibilitat 10 km o més
sense núvols per sota de 1500 mi sense presència de cumulonimbus.

METAR: OMDB 262100Z 33006KT CAVOK 33/15 Q1007 NOSIG

Hora: 01:34 (21:34 UTC)

Pronòstic

L'informe es va fer fa 4 hores i 29 minuts, a les 17:05 UTC
Pronòstic vàlid del 26 a les 18 UTC al 28 a les 00 UTC
Vent 2 kt amb direcció variable
Visibilitat 10 km o més
sense núvols per sota de 1500 mi sense presència de cumulonimbus.
Evolucionant progressivament
l' 27 a les 07 UTC al 27 a les 09 UTC
Vent 12 kt del Oest/Nord-Oest
Evolucionant progressivament
l' 27 a les 16 UTC al 27 a les 18 UTC
Vent 5 kt del Est/Nord-Est

TAF: OMDB 261705Z 2618/2800 VRB02KT CAVOK BECMG 2707/2709 29012KT BECMG 2716/2718 06005KT

Observacions i pronòstics meteorològics de més de 4000 aeroports (METAR i TAF).

Les estacions disponibles són els punts grocs i vermells al mapa.

Posi el ratolí al punt desitjat per veure el nom de l'estació.

Feu clic per veure les observacions i els pronòstics meteorològics.

Per canviar el mapa: feu clic els botons verds amb una creu de color negre per apropar; al botó verd amb un guió per allunyar la imatge; o en les fletxes verdes per a mapes adjacents.


METAR-TAF: